Montgomery, AL

9:42 AM CDT on August 20, 2014 (GMT -0500)
Troy Municipal | Change Station
CLOSE
Current Station
Airport
Location: Troy,
Elevation: 397 ft
Nearby Weather Stations

Elev 397 ft 31.86 °N, 86.01 °W | Updated 49 minutes ago

Clear
Clear
80 °F
Feels Like 84 °F
N
4
Wind Variable Wind from West

Today
High -- | Low -- °F
--% Chance of Precip.
Yesterday
High -- | Low -- °F
Precip. -- in
6:12 AM 7:24 PM
Waning Crescent, 21% visible
Pressure 30.09 in
Visibility 10.0 miles
Clouds Clear
Heat Index 84 °F
Dew Point 73 °F
Humidity 79%
Rainfall 0.00 in
Snow Depth Not available.
UV 4 out of 12
Pollen 8.20 out of 12
Air Quality Not available.
Flu Activity Not available.
METAR KTOI 201353Z AUTO 28003KT 10SM CLR 27/23 A3010 RMK AO2 SLP187 T02670228

More Conditions Fewer Conditions

Pressure 30.09 in
Visibility 10.0 miles
Clouds Clear
Heat Index 84 °F
Dew Point 73 °F
Humidity 79%
Rainfall 0.00 in
Snow Depth Not available.
UV 4 out of 12
Pollen 8.20 out of 12
Air Quality Not available.
Flu Activity Not available.
METAR KTOI 201353Z AUTO 28003KT 10SM CLR 27/23 A3010 RMK AO2 SLP187 T02670228

More Conditions Fewer Conditions

10-Day Weather Forecast

Almanac

Astronomy

Aug. 20, 2014 Rise Set
Actual Time 6:12 AM CDT 7:24 PM CDT
Civil Twilight 5:46 AM CDT 7:49 PM CDT
Nautical Twilight 5:16 AM CDT 8:20 PM CDT
Astronomical Twilight 4:44 AM CDT 8:51 PM CDT
Moon 1:58 AM CDT 4:02 PM CDT
Length of Visible Light 14h 02m
Length of Day
13h 11m
Tomorrow will be 1m 48s shorter.
Waning Crescent, 21% of the Moon is Illuminated
Today
Waning Crescent
Aug 25
New
Sep 2
First Quarter
Sep 8
Full
Sep 15
Last Quarter

Today's Extremes

State Highs State Lows

Community

WunderPhotos

Upload Photos

1,745,658 photos uploaded!

Nearby

Snow Depth

Station Depth Elevation
No new snow has been reported.

Earthquake Activity

City Distance Mag. Time & Date
No recent earthquake activity has been reported nearby.
Minimum magnitude displayed is 2.5.

Coastal Water Temperatures

Place Temperature
No Stations Reporting

Nearby Weather Stations